createdAt,value
2019-05-19T00:01:39.676Z,6.93
2019-05-19T00:04:47.049Z,7.97
2019-05-19T00:07:51.432Z,7.03
2019-05-19T00:10:55.765Z,7.30
2019-05-19T00:14:00.094Z,7.13
2019-05-19T00:17:04.351Z,7.20
2019-05-19T00:20:08.872Z,8.23
2019-05-19T00:23:13.315Z,6.83
2019-05-19T00:26:36.685Z,7.80
2019-05-19T00:29:41.079Z,8.70
2019-05-19T00:32:45.382Z,8.87
2019-05-19T00:35:49.683Z,7.33
2019-05-19T00:38:53.990Z,8.37
2019-05-19T00:41:58.294Z,9.70
2019-05-19T00:45:02.823Z,8.40
2019-05-19T00:48:07.115Z,9.67
2019-05-19T00:51:11.966Z,9.50
2019-05-19T00:54:16.276Z,9.57
2019-05-19T00:57:21.093Z,11.13
2019-05-19T01:00:25.378Z,10.20
2019-05-19T01:03:29.703Z,9.73
2019-05-19T01:06:33.990Z,10.47
2019-05-19T01:09:38.359Z,9.70
2019-05-19T01:12:42.678Z,9.50
2019-05-19T01:15:47.019Z,8.17
2019-05-19T01:18:52.841Z,9.17
2019-05-19T01:21:59.899Z,11.00
2019-05-19T01:25:04.711Z,12.60
2019-05-19T01:28:10.547Z,10.53
2019-05-19T01:31:14.879Z,11.60
2019-05-19T01:34:19.236Z,12.63
2019-05-19T01:37:23.613Z,10.33
2019-05-19T01:40:27.920Z,13.20
2019-05-19T01:43:32.274Z,11.70
2019-05-19T01:46:36.610Z,10.80
2019-05-19T01:49:40.946Z,11.50
2019-05-19T01:52:45.274Z,13.47
2019-05-19T01:55:52.258Z,14.83
2019-05-19T01:58:58.309Z,14.10
2019-05-19T02:02:02.631Z,14.27
2019-05-19T02:05:06.959Z,13.07
2019-05-19T02:08:11.297Z,13.77
2019-05-19T02:11:15.699Z,14.07
2019-05-19T02:14:20.109Z,15.93
2019-05-19T02:17:24.473Z,12.80
2019-05-19T02:20:33.438Z,13.53
2019-05-19T02:23:34.839Z,13.90
2019-05-19T02:26:39.139Z,15.30
2019-05-19T02:29:43.424Z,14.23
2019-05-19T02:32:47.862Z,14.13
2019-05-19T02:35:52.260Z,15.97
2019-05-19T02:38:56.646Z,14.20
2019-05-19T02:42:02.806Z,14.27
2019-05-19T02:45:08.441Z,13.80
2019-05-19T02:48:13.749Z,12.50
2019-05-19T02:51:19.323Z,11.97
2019-05-19T02:54:23.859Z,12.67
2019-05-19T02:57:28.646Z,12.73
2019-05-19T03:00:39.284Z,11.23
2019-05-19T03:03:43.542Z,10.80
2019-05-19T03:06:47.914Z,11.77
2019-05-19T03:09:52.237Z,11.37
2019-05-19T03:12:56.636Z,11.73
2019-05-19T03:16:01.010Z,11.40
2019-05-19T03:19:05.403Z,11.67
2019-05-19T03:22:10.063Z,10.47
2019-05-19T03:25:14.453Z,10.87
2019-05-19T03:28:18.877Z,11.00
2019-05-19T03:31:45.129Z,11.97
2019-05-19T03:34:49.533Z,10.83
2019-05-19T03:37:55.378Z,11.87
2019-05-19T03:40:59.984Z,11.47
2019-05-19T03:44:04.837Z,11.10
2019-05-19T03:47:10.434Z,12.13
2019-05-19T03:50:14.806Z,11.17
2019-05-19T03:53:19.096Z,12.40
2019-05-19T03:56:23.441Z,11.23
2019-05-19T03:59:27.711Z,13.20
2019-05-19T04:02:32.135Z,11.33
2019-05-19T04:05:36.545Z,11.40
2019-05-19T04:08:40.923Z,12.83
2019-05-19T04:11:45.224Z,12.60
2019-05-19T04:14:49.563Z,10.77
2019-05-19T04:17:53.867Z,10.63
2019-05-19T04:20:58.134Z,11.90
2019-05-19T04:24:02.478Z,10.87
2019-05-19T04:27:06.800Z,10.43
2019-05-19T04:30:11.577Z,12.77
2019-05-19T04:33:15.977Z,10.40
2019-05-19T04:36:20.352Z,10.40
2019-05-19T04:39:24.686Z,9.73
2019-05-19T04:42:48.139Z,9.70
2019-05-19T04:45:52.650Z,9.03
2019-05-19T04:48:56.989Z,9.43
2019-05-19T04:52:06.716Z,9.90
2019-05-19T04:55:07.448Z,9.60
2019-05-19T04:58:30.841Z,9.97
2019-05-19T05:01:35.240Z,11.23
2019-05-19T05:04:58.522Z,9.87
2019-05-19T05:08:02.967Z,9.67
2019-05-19T05:11:07.321Z,9.20
2019-05-19T05:14:11.720Z,9.13
2019-05-19T05:17:16.356Z,8.93
2019-05-19T05:20:22.228Z,9.67
2019-05-19T05:23:26.551Z,9.57
2019-05-19T05:26:32.373Z,9.37
2019-05-19T05:29:37.048Z,10.03
2019-05-19T05:32:41.512Z,9.80
2019-05-19T05:35:49.291Z,10.60
2019-05-19T05:38:53.589Z,9.90
2019-05-19T05:41:57.887Z,10.00
2019-05-19T05:45:02.523Z,9.57
2019-05-19T05:48:06.901Z,10.53
2019-05-19T05:51:13.998Z,11.37
2019-05-19T05:54:18.407Z,10.00
2019-05-19T05:57:22.685Z,10.40
2019-05-19T06:00:27.155Z,10.10
2019-05-19T06:03:31.922Z,10.87
2019-05-19T06:06:36.447Z,10.63
2019-05-19T06:09:40.772Z,10.87
2019-05-19T06:12:45.102Z,9.53
2019-05-19T06:15:50.108Z,10.37
2019-05-19T06:18:56.800Z,10.47
2019-05-19T06:22:00.630Z,9.63
2019-05-19T06:25:05.520Z,9.50
2019-05-19T06:28:09.888Z,9.80
2019-05-19T06:31:14.189Z,9.60
2019-05-19T06:34:18.584Z,9.30
2019-05-19T06:37:22.923Z,9.00
2019-05-19T06:40:28.567Z,8.67
2019-05-19T06:43:33.674Z,8.10
2019-05-19T06:46:38.276Z,8.17
2019-05-19T06:49:44.639Z,9.20
2019-05-19T06:52:49.108Z,8.30
2019-05-19T06:55:53.489Z,9.13
2019-05-19T06:58:57.793Z,8.73
2019-05-19T07:02:03.160Z,9.50
2019-05-19T07:05:07.595Z,9.37
2019-05-19T07:08:11.923Z,9.30
2019-05-19T07:11:16.657Z,8.80
2019-05-19T07:14:20.968Z,8.23
2019-05-19T07:17:25.275Z,8.63
2019-05-19T07:20:30.610Z,8.97
2019-05-19T07:23:34.960Z,9.37
2019-05-19T07:26:39.248Z,9.33
2019-05-19T07:29:43.638Z,9.60
2019-05-19T07:32:47.946Z,9.40
2019-05-19T07:35:52.361Z,8.70
2019-05-19T07:38:57.105Z,8.47
2019-05-19T07:42:01.896Z,8.20
2019-05-19T07:45:07.473Z,8.13
2019-05-19T07:48:11.965Z,8.30
2019-05-19T07:51:16.729Z,9.13
2019-05-19T07:54:21.097Z,9.00
2019-05-19T07:57:25.419Z,10.37
2019-05-19T08:00:29.751Z,9.20
2019-05-19T08:03:34.137Z,9.27
2019-05-19T08:06:38.533Z,9.37
2019-05-19T08:09:42.874Z,9.77
2019-05-19T08:12:47.171Z,10.07
2019-05-19T08:15:51.469Z,10.27
2019-05-19T08:18:55.942Z,10.07
2019-05-19T08:22:00.356Z,9.73
2019-05-19T08:25:07.071Z,9.40
2019-05-19T08:28:11.385Z,9.83
2019-05-19T08:31:15.633Z,10.60
2019-05-19T08:34:19.996Z,11.53
2019-05-19T08:37:27.613Z,10.73
2019-05-19T08:40:31.925Z,11.10
2019-05-19T08:43:36.359Z,10.47
2019-05-19T08:46:40.715Z,10.00
2019-05-19T08:49:45.120Z,11.17
2019-05-19T08:52:49.410Z,10.57
2019-05-19T08:55:53.872Z,10.57
2019-05-19T08:58:58.663Z,10.27
2019-05-19T09:02:06.145Z,9.80
2019-05-19T09:05:10.731Z,10.30
2019-05-19T09:08:15.119Z,9.60
2019-05-19T09:11:19.778Z,10.33
2019-05-19T09:14:24.187Z,10.03
2019-05-19T09:17:28.537Z,10.63
2019-05-19T09:20:32.837Z,10.93
2019-05-19T09:23:37.131Z,11.20
2019-05-19T09:26:41.466Z,10.77
2019-05-19T09:29:45.790Z,10.53
2019-05-19T09:32:50.111Z,9.87
2019-05-19T09:35:54.468Z,11.40
2019-05-19T09:38:58.788Z,11.33
2019-05-19T09:42:03.146Z,11.97
2019-05-19T09:45:09.583Z,12.43
2019-05-19T09:48:14.123Z,10.90
2019-05-19T09:51:21.509Z,9.00
2019-05-19T09:54:26.275Z,10.40
2019-05-19T09:57:33.614Z,11.50
2019-05-19T10:00:37.940Z,10.10
2019-05-19T10:03:42.236Z,9.37
2019-05-19T10:06:46.590Z,9.73
2019-05-19T10:09:59.723Z,8.77
2019-05-19T10:13:04.088Z,8.47
2019-05-19T10:16:08.413Z,8.77
2019-05-19T10:19:12.762Z,8.63
2019-05-19T10:22:18.372Z,8.17
2019-05-19T10:25:23.523Z,8.57
2019-05-19T10:28:27.970Z,8.53
2019-05-19T10:31:35.692Z,8.07
2019-05-19T10:34:40.002Z,7.83
2019-05-19T10:37:44.291Z,7.70
2019-05-19T10:40:49.776Z,8.20
2019-05-19T10:44:01.584Z,8.27
2019-05-19T10:47:06.188Z,9.07
2019-05-19T10:50:11.082Z,8.07
2019-05-19T10:53:15.489Z,8.43
2019-05-19T10:56:19.820Z,8.13
2019-05-19T10:59:24.115Z,8.37
2019-05-19T11:02:28.466Z,8.07
2019-05-19T11:05:34.438Z,8.10
2019-05-19T11:08:38.764Z,8.47
2019-05-19T11:11:43.163Z,7.90
2019-05-19T11:14:47.552Z,7.50
2019-05-19T11:17:51.894Z,6.83
2019-05-19T11:20:58.094Z,7.83
2019-05-19T11:24:02.487Z,6.97
2019-05-19T11:27:10.074Z,7.80
2019-05-19T11:30:14.890Z,6.40
2019-05-19T11:33:19.212Z,7.20
2019-05-19T11:36:23.540Z,7.50
2019-05-19T11:39:28.240Z,7.40
2019-05-19T11:42:32.636Z,8.10
2019-05-19T11:45:37.047Z,7.20
2019-05-19T11:48:41.360Z,7.20
2019-05-19T11:51:45.699Z,5.70
2019-05-19T11:54:51.549Z,6.57
2019-05-19T11:57:55.920Z,6.93
2019-05-19T12:01:03.274Z,7.17
2019-05-19T12:04:07.970Z,6.30
2019-05-19T12:07:12.352Z,6.20
2019-05-19T12:10:17.214Z,6.30
2019-05-19T12:13:21.637Z,6.07
2019-05-19T12:16:27.524Z,6.50
2019-05-19T12:19:31.885Z,5.80
2019-05-19T12:22:36.531Z,6.17
2019-05-19T12:25:41.279Z,6.50
2019-05-19T12:28:45.683Z,7.00
2019-05-19T12:31:51.635Z,6.60
2019-05-19T12:34:56.322Z,6.37
2019-05-19T12:38:00.675Z,6.60
2019-05-19T12:41:05.036Z,7.13
2019-05-19T12:44:09.418Z,6.30
2019-05-19T12:47:13.804Z,7.30
2019-05-19T12:50:18.411Z,5.93
2019-05-19T12:53:22.734Z,6.50
2019-05-19T12:56:39.131Z,7.20
2019-05-19T12:59:34.827Z,6.60
2019-05-19T13:02:39.189Z,6.27
2019-05-19T13:05:43.614Z,5.90
2019-05-19T13:08:48.376Z,6.23
2019-05-19T13:11:54.608Z,6.00
2019-05-19T13:14:59.018Z,6.30
2019-05-19T13:18:03.459Z,6.20
2019-05-19T13:21:08.186Z,6.50
2019-05-19T13:24:12.582Z,6.10
2019-05-19T13:27:17.794Z,6.57
2019-05-19T13:30:22.481Z,6.37
2019-05-19T13:33:26.796Z,6.87
2019-05-19T13:36:34.941Z,7.00
2019-05-19T13:39:39.339Z,6.23
2019-05-19T13:42:43.833Z,6.30
2019-05-19T13:45:48.729Z,6.70
2019-05-19T13:48:53.404Z,7.30
2019-05-19T13:51:58.034Z,6.13
2019-05-19T13:55:02.736Z,5.87
2019-05-19T13:58:07.086Z,5.67
2019-05-19T14:01:27.582Z,5.63
2019-05-19T14:04:20.302Z,5.60
2019-05-19T14:07:24.643Z,7.20
2019-05-19T14:10:28.995Z,6.27
2019-05-19T14:13:33.415Z,5.93
2019-05-19T14:16:37.739Z,6.03
2019-05-19T14:19:42.120Z,6.33
2019-05-19T14:22:46.639Z,5.97
2019-05-19T14:25:51.010Z,6.67
2019-05-19T14:28:55.411Z,8.13
2019-05-19T14:31:59.757Z,9.17
2019-05-19T14:35:04.566Z,8.60
2019-05-19T14:38:08.914Z,8.10
2019-05-19T14:41:13.289Z,9.03
2019-05-19T14:44:17.822Z,8.87
2019-05-19T14:47:22.199Z,8.07
2019-05-19T14:50:26.554Z,8.10
2019-05-19T14:53:30.873Z,7.87
2019-05-19T14:56:35.204Z,8.00
2019-05-19T14:59:39.549Z,8.20
2019-05-19T15:02:43.969Z,7.87
2019-05-19T15:05:48.303Z,7.73
2019-05-19T15:08:52.641Z,7.57
2019-05-19T15:11:56.906Z,7.90
2019-05-19T15:15:01.222Z,8.10
2019-05-19T15:18:05.600Z,8.70
2019-05-19T15:21:10.379Z,8.80
2019-05-19T15:24:15.698Z,7.00
2019-05-19T15:27:20.007Z,7.33
2019-05-19T15:30:24.370Z,6.80
2019-05-19T15:33:37.376Z,7.00
2019-05-19T15:36:34.869Z,6.83
2019-05-19T15:39:39.663Z,6.37
2019-05-19T15:42:44.001Z,6.53
2019-05-19T15:45:48.262Z,6.00
2019-05-19T15:48:52.553Z,6.67
2019-05-19T15:52:03.097Z,5.93
2019-05-19T15:55:03.822Z,5.50
2019-05-19T15:58:16.050Z,6.47
2019-05-19T16:01:14.159Z,5.73
2019-05-19T16:04:18.506Z,5.70
2019-05-19T16:07:23.097Z,6.50
2019-05-19T16:10:27.842Z,5.63
2019-05-19T16:13:32.292Z,6.63
2019-05-19T16:16:36.589Z,6.20
2019-05-19T16:19:40.904Z,6.43
2019-05-19T16:22:45.211Z,6.20
2019-05-19T16:25:49.555Z,5.77
2019-05-19T16:28:53.977Z,6.40
2019-05-19T16:31:58.363Z,7.07
2019-05-19T16:35:02.678Z,7.10
2019-05-19T16:38:07.382Z,7.60
2019-05-19T16:41:13.250Z,7.30
2019-05-19T16:44:17.574Z,6.57
2019-05-19T16:47:22.010Z,6.37
2019-05-19T16:50:26.363Z,5.07
2019-05-19T16:53:31.059Z,5.13
2019-05-19T16:56:35.437Z,4.73
2019-05-19T16:59:39.853Z,4.50
2019-05-19T17:02:44.213Z,4.43
2019-05-19T17:05:49.278Z,4.10
2019-05-19T17:08:56.324Z,4.03
2019-05-19T17:12:00.671Z,4.17
2019-05-19T17:15:06.613Z,3.90
2019-05-19T17:18:11.466Z,4.10
2019-05-19T17:21:15.915Z,5.07
2019-05-19T17:24:20.249Z,3.97
2019-05-19T17:27:25.260Z,4.53
2019-05-19T17:30:29.583Z,5.07
2019-05-19T17:33:34.344Z,4.20
2019-05-19T17:36:38.939Z,4.90
2019-05-19T17:39:43.277Z,5.17
2019-05-19T17:42:47.598Z,5.20
2019-05-19T17:45:51.899Z,5.00
2019-05-19T17:48:56.240Z,5.40
2019-05-19T17:52:00.823Z,5.40
2019-05-19T17:55:05.650Z,5.40
2019-05-19T17:58:12.857Z,5.17
2019-05-19T18:01:17.115Z,4.23
2019-05-19T18:04:21.459Z,5.30
2019-05-19T18:07:25.799Z,5.40
2019-05-19T18:10:31.042Z,4.53
2019-05-19T18:13:36.884Z,3.90
2019-05-19T18:16:41.265Z,3.50
2019-05-19T18:19:45.631Z,3.03
2019-05-19T18:22:49.972Z,3.10
2019-05-19T18:25:54.303Z,2.50
2019-05-19T18:28:58.694Z,2.90
2019-05-19T18:32:06.289Z,2.83
2019-05-19T18:35:10.669Z,3.10
2019-05-19T18:38:14.980Z,3.10
2019-05-19T18:41:19.412Z,4.10
2019-05-19T18:44:23.735Z,3.83
2019-05-19T18:47:28.324Z,3.87
2019-05-19T18:50:32.718Z,3.60
2019-05-19T18:53:37.072Z,3.13
2019-05-19T18:56:41.382Z,2.73
2019-05-19T18:59:47.659Z,2.57
2019-05-19T19:02:51.717Z,3.17
2019-05-19T19:05:56.646Z,3.10
2019-05-19T19:09:08.625Z,7.87
2019-05-19T19:12:16.788Z,9.93
2019-05-19T19:15:21.206Z,10.70
2019-05-19T19:18:25.636Z,11.77
2019-05-19T19:21:29.948Z,12.30
2019-05-19T19:24:34.260Z,7.97
2019-05-19T19:27:38.623Z,6.93
2019-05-19T19:30:43.840Z,5.40
2019-05-19T19:33:48.176Z,6.10
2019-05-19T19:36:53.933Z,4.13
2019-05-19T19:39:58.231Z,4.10
2019-05-19T19:43:03.178Z,4.17
2019-05-19T19:46:07.539Z,3.67
2019-05-19T19:49:12.245Z,3.93
2019-05-19T19:52:16.589Z,3.67
2019-05-19T19:55:20.891Z,3.80
2019-05-19T19:58:25.236Z,3.57
2019-05-19T20:01:29.631Z,3.23
2019-05-19T20:04:33.995Z,3.20
2019-05-19T20:07:38.319Z,2.87
2019-05-19T20:10:42.791Z,3.00
2019-05-19T20:13:47.218Z,2.87
2019-05-19T20:16:53.136Z,2.60
2019-05-19T20:20:00.756Z,2.80
2019-05-19T20:23:05.985Z,2.90
2019-05-19T20:26:10.367Z,2.50
2019-05-19T20:29:14.688Z,3.00
2019-05-19T20:32:19.040Z,3.10
2019-05-19T20:35:23.752Z,3.27
2019-05-19T20:38:28.076Z,2.83
2019-05-19T20:41:32.408Z,3.13
2019-05-19T20:44:36.802Z,2.80
2019-05-19T20:47:41.405Z,3.00
2019-05-19T20:50:45.712Z,3.00
2019-05-19T20:53:53.059Z,2.70
2019-05-19T20:56:56.055Z,2.63
2019-05-19T21:00:00.696Z,3.30
2019-05-19T21:03:05.143Z,2.53
2019-05-19T21:06:09.531Z,2.77
2019-05-19T21:09:13.938Z,2.80
2019-05-19T21:12:18.373Z,3.17
2019-05-19T21:15:22.781Z,2.97
2019-05-19T21:18:27.100Z,3.37
2019-05-19T21:21:31.514Z,3.67
2019-05-19T21:24:35.781Z,2.97
2019-05-19T21:27:40.166Z,2.70
2019-05-19T21:30:44.451Z,2.60
2019-05-19T21:33:48.794Z,3.00
2019-05-19T21:36:54.775Z,3.10
2019-05-19T21:39:59.099Z,2.93
2019-05-19T21:43:03.447Z,4.03
2019-05-19T21:46:07.757Z,2.57
2019-05-19T21:49:12.060Z,2.87
2019-05-19T21:52:16.482Z,2.57
2019-05-19T21:55:20.774Z,2.67
2019-05-19T21:58:25.139Z,3.00
2019-05-19T22:01:29.512Z,2.80
2019-05-19T22:04:34.978Z,2.87
2019-05-19T22:07:48.617Z,3.17
2019-05-19T22:10:52.962Z,2.70
2019-05-19T22:13:57.355Z,3.10
2019-05-19T22:17:01.764Z,3.10
2019-05-19T22:20:06.094Z,2.57
2019-05-19T22:23:10.709Z,3.00
2019-05-19T22:26:14.987Z,3.10
2019-05-19T22:29:19.309Z,2.90
2019-05-19T22:32:23.618Z,3.70
2019-05-19T22:35:28.099Z,2.83
2019-05-19T22:38:32.474Z,3.03
2019-05-19T22:41:37.098Z,3.37
2019-05-19T22:44:41.402Z,2.80
2019-05-19T22:47:46.209Z,3.30
2019-05-19T22:50:50.595Z,2.97
2019-05-19T22:53:55.002Z,3.03
2019-05-19T22:56:59.266Z,3.30
2019-05-19T23:00:03.845Z,3.30
2019-05-19T23:03:08.140Z,3.10
2019-05-19T23:06:12.446Z,3.33
2019-05-19T23:09:16.786Z,3.13
2019-05-19T23:12:21.156Z,3.03
2019-05-19T23:15:25.476Z,4.30
2019-05-19T23:18:29.882Z,2.90
2019-05-19T23:21:34.612Z,3.00
2019-05-19T23:24:38.987Z,3.47
2019-05-19T23:27:43.357Z,3.20
2019-05-19T23:30:47.764Z,3.67
2019-05-19T23:33:52.138Z,4.07
2019-05-19T23:36:56.589Z,3.40
2019-05-19T23:40:00.968Z,3.93
2019-05-19T23:43:05.281Z,3.40
2019-05-19T23:46:09.609Z,3.70
2019-05-19T23:49:13.990Z,4.13
2019-05-19T23:52:18.352Z,3.50
2019-05-19T23:55:22.691Z,3.30
2019-05-19T23:58:27.081Z,3.20
